createdAt,value
2019-01-02T00:00:47.348Z,4.60
2019-01-02T00:01:47.526Z,3.70
2019-01-02T00:02:47.705Z,3.70
2019-01-02T00:03:47.882Z,3.80
2019-01-02T00:04:48.059Z,4.00
2019-01-02T00:05:48.250Z,4.40
2019-01-02T00:06:48.421Z,4.00
2019-01-02T00:07:48.600Z,4.00
2019-01-02T00:08:48.791Z,3.80
2019-01-02T00:09:48.976Z,3.90
2019-01-02T00:10:49.158Z,3.70
2019-01-02T00:11:49.346Z,4.00
2019-01-02T00:12:49.520Z,3.40
2019-01-02T00:13:49.719Z,3.80
2019-01-02T00:14:49.892Z,4.00
2019-01-02T00:15:50.082Z,4.60
2019-01-02T00:16:50.241Z,3.80
2019-01-02T00:17:50.436Z,3.60
2019-01-02T00:18:50.620Z,3.80
2019-01-02T00:19:50.803Z,3.80
2019-01-02T00:20:50.980Z,3.60
2019-01-02T00:21:51.162Z,3.60
2019-01-02T00:22:51.341Z,3.60
2019-01-02T00:23:51.526Z,4.60
2019-01-02T00:24:51.724Z,4.80
2019-01-02T00:25:51.884Z,3.40
2019-01-02T00:26:52.069Z,3.50
2019-01-02T00:27:52.256Z,3.80
2019-01-02T00:28:52.448Z,3.80
2019-01-02T00:29:52.643Z,3.90
2019-01-02T00:30:52.798Z,3.90
2019-01-02T00:31:53.045Z,3.90
2019-01-02T00:32:53.194Z,3.80
2019-01-02T00:33:53.376Z,3.70
2019-01-02T00:34:53.551Z,4.30
2019-01-02T00:35:53.759Z,3.00
2019-01-02T00:36:53.933Z,3.80
2019-01-02T00:37:54.115Z,4.20
2019-01-02T00:38:54.291Z,4.50
2019-01-02T00:39:54.465Z,4.10
2019-01-02T00:40:54.638Z,3.70
2019-01-02T00:41:54.833Z,3.90
2019-01-02T00:42:55.004Z,4.80
2019-01-02T00:43:55.196Z,3.90
2019-01-02T00:44:55.370Z,3.60
2019-01-02T00:45:55.565Z,3.40
2019-01-02T00:46:55.752Z,3.60
2019-01-02T00:47:55.938Z,4.40
2019-01-02T00:48:56.114Z,3.80
2019-01-02T00:49:56.315Z,3.40
2019-01-02T00:50:56.480Z,4.00
2019-01-02T00:51:56.664Z,4.00
2019-01-02T00:52:56.840Z,3.50
2019-01-02T00:53:57.018Z,4.00
2019-01-02T00:54:57.192Z,4.30
2019-01-02T00:55:57.398Z,4.30
2019-01-02T00:56:57.552Z,4.20
2019-01-02T00:57:57.737Z,3.30
2019-01-02T00:58:57.919Z,4.70
2019-01-02T00:59:58.095Z,3.70
2019-01-02T01:00:58.288Z,3.50
2019-01-02T01:01:58.453Z,3.70
2019-01-02T01:02:58.647Z,4.60
2019-01-02T01:03:58.818Z,4.50
2019-01-02T01:04:58.993Z,3.50
2019-01-02T01:05:59.198Z,4.40
2019-01-02T01:06:59.369Z,4.00
2019-01-02T01:07:59.550Z,4.50
2019-01-02T01:08:59.716Z,3.90
2019-01-02T01:09:59.899Z,4.10
2019-01-02T01:11:00.089Z,4.40
2019-01-02T01:12:00.264Z,4.40
2019-01-02T01:13:00.466Z,4.40
2019-01-02T01:14:00.636Z,5.20
2019-01-02T01:15:00.808Z,3.90
2019-01-02T01:16:01.006Z,5.00
2019-01-02T01:17:01.187Z,4.50
2019-01-02T01:18:01.372Z,4.70
2019-01-02T01:19:01.561Z,4.10
2019-01-02T01:20:01.738Z,3.90
2019-01-02T01:21:01.927Z,4.20
2019-01-02T01:22:02.109Z,4.00
2019-01-02T01:23:02.308Z,4.40
2019-01-02T01:24:02.480Z,4.00
2019-01-02T01:25:02.656Z,4.70
2019-01-02T01:26:02.855Z,4.00
2019-01-02T01:27:03.024Z,4.00
2019-01-02T01:28:03.202Z,4.20
2019-01-02T01:29:03.385Z,3.80
2019-01-02T01:30:03.562Z,4.60
2019-01-02T01:31:03.745Z,4.30
2019-01-02T01:32:03.927Z,4.00
2019-01-02T01:33:04.103Z,3.90
2019-01-02T01:34:04.284Z,3.90
2019-01-02T01:35:04.468Z,4.70
2019-01-02T01:36:04.636Z,4.60
2019-01-02T01:37:04.819Z,4.80
2019-01-02T01:38:05.000Z,4.80
2019-01-02T01:39:05.173Z,4.10
2019-01-02T01:40:05.348Z,4.50
2019-01-02T01:41:05.555Z,5.00
2019-01-02T01:42:05.705Z,4.00
2019-01-02T01:43:05.885Z,4.80
2019-01-02T01:44:06.076Z,4.60
2019-01-02T01:45:06.260Z,4.20
2019-01-02T01:46:06.440Z,4.70
2019-01-02T01:47:06.622Z,4.10
2019-01-02T01:48:06.800Z,4.30
2019-01-02T01:49:06.996Z,5.10
2019-01-02T01:50:07.176Z,4.50
2019-01-02T01:51:07.344Z,4.40
2019-01-02T01:52:07.528Z,4.60
2019-01-02T01:53:07.709Z,4.40
2019-01-02T01:54:07.886Z,3.90
2019-01-02T01:55:08.065Z,4.70
2019-01-02T01:56:08.244Z,4.30
2019-01-02T01:57:08.429Z,4.10
2019-01-02T01:58:08.608Z,4.20
2019-01-02T01:59:08.788Z,4.40
2019-01-02T02:00:08.972Z,4.40
2019-01-02T02:01:09.151Z,4.80
2019-01-02T02:02:09.335Z,4.90
2019-01-02T02:03:09.512Z,4.40
2019-01-02T02:04:09.693Z,4.40
2019-01-02T02:05:09.869Z,4.20
2019-01-02T02:06:10.049Z,3.70
2019-01-02T02:07:10.233Z,4.70
2019-01-02T02:08:10.412Z,4.60
2019-01-02T02:09:10.593Z,4.20
2019-01-02T02:10:10.778Z,4.40
2019-01-02T02:11:10.976Z,4.40
2019-01-02T02:12:11.130Z,4.70
2019-01-02T02:13:11.314Z,4.30
2019-01-02T02:14:11.503Z,4.70
2019-01-02T02:15:11.684Z,4.80
2019-01-02T02:16:11.867Z,4.90
2019-01-02T02:17:12.060Z,4.80
2019-01-02T02:18:12.245Z,5.00
2019-01-02T02:19:12.432Z,4.60
2019-01-02T02:20:12.614Z,4.90
2019-01-02T02:21:12.778Z,3.60
2019-01-02T02:22:12.974Z,5.00
2019-01-02T02:23:13.152Z,4.40
2019-01-02T02:24:13.322Z,5.00
2019-01-02T02:25:13.527Z,5.00
2019-01-02T02:26:13.707Z,5.10
2019-01-02T02:27:13.890Z,4.50
2019-01-02T02:28:14.072Z,5.00
2019-01-02T02:29:14.258Z,4.90
2019-01-02T02:30:14.447Z,4.80
2019-01-02T02:31:14.617Z,5.60
2019-01-02T02:32:14.805Z,4.20
2019-01-02T02:33:14.971Z,4.30
2019-01-02T02:34:15.156Z,4.60
2019-01-02T02:35:15.338Z,4.90
2019-01-02T02:36:15.519Z,4.80
2019-01-02T02:37:15.697Z,4.40
2019-01-02T02:38:15.874Z,4.80
2019-01-02T02:39:16.049Z,4.90
2019-01-02T02:40:16.229Z,4.50
2019-01-02T02:41:16.406Z,4.50
2019-01-02T02:42:16.593Z,4.40
2019-01-02T02:43:16.777Z,4.50
2019-01-02T02:44:16.954Z,4.70
2019-01-02T02:45:17.154Z,4.90
2019-01-02T02:46:17.317Z,4.60
2019-01-02T02:47:17.501Z,4.10
2019-01-02T02:48:17.677Z,4.50
2019-01-02T02:49:17.863Z,4.10
2019-01-02T02:50:18.040Z,4.50
2019-01-02T02:51:18.217Z,4.10
2019-01-02T02:52:18.401Z,3.70
2019-01-02T02:53:18.578Z,4.50
2019-01-02T02:54:18.768Z,4.70
2019-01-02T02:55:18.945Z,4.60
2019-01-02T02:56:19.126Z,4.30
2019-01-02T02:57:19.311Z,4.20
2019-01-02T02:58:19.496Z,4.90
2019-01-02T02:59:19.682Z,4.30
2019-01-02T03:00:19.866Z,4.20
2019-01-02T03:01:20.043Z,4.00
2019-01-02T03:02:20.317Z,4.40
2019-01-02T03:03:20.407Z,4.10
2019-01-02T03:04:20.583Z,4.20
2019-01-02T03:05:20.763Z,4.10
2019-01-02T03:06:21.264Z,4.50
2019-01-02T03:07:21.129Z,4.70
2019-01-02T03:08:21.308Z,4.10
2019-01-02T03:09:21.503Z,4.40
2019-01-02T03:10:21.666Z,4.80
2019-01-02T03:11:21.842Z,4.70
2019-01-02T03:12:22.019Z,4.20
2019-01-02T03:13:22.220Z,4.20
2019-01-02T03:14:22.400Z,5.10
2019-01-02T03:15:22.574Z,4.10
2019-01-02T03:16:22.759Z,4.60
2019-01-02T03:17:22.937Z,4.40
2019-01-02T03:18:23.119Z,4.40
2019-01-02T03:19:23.303Z,5.00
2019-01-02T03:20:23.482Z,3.90
2019-01-02T03:21:23.663Z,4.40
2019-01-02T03:22:23.841Z,4.80
2019-01-02T03:23:24.021Z,4.40
2019-01-02T03:24:24.206Z,4.60
2019-01-02T03:25:24.397Z,5.00
2019-01-02T03:26:24.567Z,4.00
2019-01-02T03:27:24.748Z,4.00
2019-01-02T03:28:24.924Z,4.20
2019-01-02T03:29:25.108Z,4.70
2019-01-02T03:30:25.282Z,4.70
2019-01-02T03:31:25.457Z,4.60
2019-01-02T03:32:25.637Z,5.00
2019-01-02T03:33:25.821Z,4.00
2019-01-02T03:34:26.001Z,5.20
2019-01-02T03:35:26.177Z,4.90
2019-01-02T03:36:26.364Z,4.50
2019-01-02T03:37:26.539Z,4.60
2019-01-02T03:38:26.724Z,4.80
2019-01-02T03:39:26.915Z,4.70
2019-01-02T03:40:27.088Z,4.40
2019-01-02T03:41:27.266Z,4.50
2019-01-02T03:42:27.450Z,4.60
2019-01-02T03:43:27.625Z,4.90
2019-01-02T03:44:27.821Z,4.40
2019-01-02T03:45:27.989Z,4.70
2019-01-02T03:46:28.170Z,5.20
2019-01-02T03:47:28.354Z,4.40
2019-01-02T03:48:28.532Z,5.10
2019-01-02T03:49:28.711Z,4.60
2019-01-02T03:50:28.892Z,4.50
2019-01-02T03:51:29.069Z,4.50
2019-01-02T03:52:29.261Z,4.80
2019-01-02T03:53:29.450Z,4.60
2019-01-02T03:54:29.628Z,4.80
2019-01-02T03:55:29.815Z,4.00
2019-01-02T03:56:29.988Z,4.90
2019-01-02T03:57:30.161Z,4.70
2019-01-02T03:58:30.344Z,4.60
2019-01-02T03:59:30.529Z,4.90
2019-01-02T04:00:30.714Z,4.70
2019-01-02T04:01:30.898Z,4.40
2019-01-02T04:02:31.083Z,4.50
2019-01-02T04:03:31.273Z,5.00
2019-01-02T04:04:31.452Z,4.40
2019-01-02T04:05:31.630Z,4.70
2019-01-02T04:06:31.811Z,5.10
2019-01-02T04:07:31.993Z,4.10
2019-01-02T04:08:32.180Z,5.20
2019-01-02T04:09:32.339Z,4.80
2019-01-02T04:10:32.515Z,4.50
2019-01-02T04:11:32.691Z,4.90
2019-01-02T04:12:32.870Z,4.90
2019-01-02T04:13:33.064Z,4.90
2019-01-02T04:14:33.249Z,4.50
2019-01-02T04:15:33.423Z,4.30
2019-01-02T04:16:33.603Z,4.30
2019-01-02T04:17:33.783Z,4.10
2019-01-02T04:18:33.967Z,3.90
2019-01-02T04:19:34.151Z,4.80
2019-01-02T04:20:34.328Z,4.60
2019-01-02T04:21:34.511Z,4.60
2019-01-02T04:22:34.689Z,5.10
2019-01-02T04:23:34.872Z,4.20
2019-01-02T04:24:35.058Z,4.70
2019-01-02T04:25:35.235Z,4.90
2019-01-02T04:26:35.416Z,4.60
2019-01-02T04:27:35.599Z,4.60
2019-01-02T04:28:35.787Z,4.50
2019-01-02T04:29:35.971Z,4.30
2019-01-02T04:30:36.139Z,4.00
2019-01-02T04:31:36.319Z,4.10
2019-01-02T04:32:36.524Z,5.00
2019-01-02T04:33:36.711Z,3.80
2019-01-02T04:34:36.885Z,4.40
2019-01-02T04:35:37.076Z,4.60
2019-01-02T04:36:37.255Z,4.30
2019-01-02T04:37:37.438Z,4.50
2019-01-02T04:38:37.615Z,4.40
2019-01-02T04:39:37.799Z,5.00
2019-01-02T04:40:37.970Z,4.70
2019-01-02T04:41:38.151Z,4.30
2019-01-02T04:42:38.335Z,4.40
2019-01-02T04:43:38.518Z,3.80
2019-01-02T04:44:38.702Z,4.60
2019-01-02T04:45:38.874Z,4.10
2019-01-02T04:46:39.053Z,4.00
2019-01-02T04:47:39.231Z,3.70
2019-01-02T04:48:39.415Z,4.30
2019-01-02T04:49:39.591Z,4.10
2019-01-02T04:50:39.774Z,4.00
2019-01-02T04:51:39.951Z,4.50
2019-01-02T04:52:40.132Z,4.20
2019-01-02T04:53:40.307Z,3.40
2019-01-02T04:54:40.508Z,4.40
2019-01-02T04:55:40.688Z,3.60
2019-01-02T04:56:40.857Z,4.10
2019-01-02T04:57:41.036Z,3.40
2019-01-02T04:58:41.219Z,3.60
2019-01-02T04:59:41.400Z,4.20
2019-01-02T05:00:41.592Z,3.70
2019-01-02T05:01:41.773Z,3.70
2019-01-02T05:02:41.963Z,4.00
2019-01-02T05:03:42.148Z,4.90
2019-01-02T05:04:42.330Z,3.90
2019-01-02T05:05:42.514Z,3.60
2019-01-02T05:06:42.694Z,4.20
2019-01-02T05:07:42.876Z,3.90
2019-01-02T05:08:43.050Z,4.00
2019-01-02T05:09:43.234Z,4.00
2019-01-02T05:10:43.413Z,3.90
2019-01-02T05:11:43.591Z,3.20
2019-01-02T05:12:43.777Z,3.70
2019-01-02T05:13:43.955Z,4.20
2019-01-02T05:14:44.130Z,4.30
2019-01-02T05:15:44.322Z,3.90
2019-01-02T05:16:44.489Z,4.50
2019-01-02T05:17:44.672Z,3.80
2019-01-02T05:18:44.866Z,4.20
2019-01-02T05:19:45.036Z,3.60
2019-01-02T05:20:45.217Z,3.90
2019-01-02T05:21:45.388Z,3.80
2019-01-02T05:22:45.569Z,4.40
2019-01-02T05:23:45.752Z,4.00
2019-01-02T05:24:45.932Z,4.10
2019-01-02T05:25:46.114Z,3.60
2019-01-02T05:26:46.295Z,4.40
2019-01-02T05:27:46.476Z,4.10
2019-01-02T05:28:46.655Z,4.70
2019-01-02T05:29:46.836Z,4.20
2019-01-02T05:30:47.014Z,3.70
2019-01-02T05:31:47.191Z,4.00
2019-01-02T05:32:47.372Z,4.20
2019-01-02T05:33:47.551Z,4.10
2019-01-02T05:34:47.730Z,4.20
2019-01-02T05:35:47.915Z,4.10
2019-01-02T05:36:48.141Z,4.20
2019-01-02T05:37:48.277Z,4.20
2019-01-02T05:38:48.450Z,4.80
2019-01-02T05:39:48.630Z,5.10
2019-01-02T05:40:48.812Z,4.40
2019-01-02T05:41:48.992Z,4.60
2019-01-02T05:42:49.174Z,4.60
2019-01-02T05:43:49.351Z,5.00
2019-01-02T05:44:49.535Z,4.70
2019-01-02T05:45:49.724Z,4.70
2019-01-02T05:46:49.891Z,5.20
2019-01-02T05:47:50.073Z,5.10
2019-01-02T05:48:50.263Z,5.10
2019-01-02T05:49:50.432Z,5.30
2019-01-02T05:50:50.611Z,4.60
2019-01-02T05:51:50.790Z,5.60
2019-01-02T05:52:50.991Z,4.90
2019-01-02T05:53:51.160Z,4.90
2019-01-02T05:54:51.336Z,4.90
2019-01-02T05:55:51.521Z,4.30
2019-01-02T05:56:51.699Z,5.10
2019-01-02T05:57:51.875Z,5.50
2019-01-02T05:58:52.062Z,4.80
2019-01-02T05:59:52.230Z,5.00
2019-01-02T06:00:52.412Z,5.60
2019-01-02T06:01:52.585Z,5.20
2019-01-02T06:02:52.767Z,4.80
2019-01-02T06:03:52.944Z,5.30
2019-01-02T06:04:53.131Z,4.50
2019-01-02T06:05:53.316Z,5.70
2019-01-02T06:06:53.494Z,4.80
2019-01-02T06:07:53.678Z,4.90
2019-01-02T06:08:53.859Z,5.00
2019-01-02T06:09:54.035Z,5.30
2019-01-02T06:10:54.211Z,5.00
2019-01-02T06:11:54.392Z,5.20
2019-01-02T06:12:54.570Z,5.30
2019-01-02T06:13:54.755Z,5.10
2019-01-02T06:14:54.932Z,5.60
2019-01-02T06:15:55.142Z,4.90
2019-01-02T06:16:55.303Z,5.60
2019-01-02T06:17:55.484Z,5.20
2019-01-02T06:18:55.662Z,5.30
2019-01-02T06:19:55.844Z,5.30
2019-01-02T06:20:56.024Z,5.30
2019-01-02T06:21:56.211Z,5.10
2019-01-02T06:22:56.398Z,5.90
2019-01-02T06:23:56.579Z,6.00
2019-01-02T06:24:56.755Z,5.70
2019-01-02T06:25:56.942Z,5.30
2019-01-02T06:26:57.125Z,4.90
2019-01-02T06:27:57.313Z,5.00
2019-01-02T06:28:57.494Z,5.50
2019-01-02T06:29:57.671Z,5.40
2019-01-02T06:30:57.855Z,5.30
2019-01-02T06:31:58.034Z,5.30
2019-01-02T06:32:58.213Z,5.10
2019-01-02T06:33:58.393Z,5.30
2019-01-02T06:34:58.575Z,6.10
2019-01-02T06:35:58.761Z,5.30
2019-01-02T06:36:58.940Z,5.70
2019-01-02T06:37:59.120Z,5.20
2019-01-02T06:38:59.296Z,5.30
2019-01-02T06:39:59.476Z,4.90
2019-01-02T06:40:59.658Z,4.90
2019-01-02T06:41:59.843Z,5.20
2019-01-02T06:43:00.027Z,4.90
2019-01-02T06:44:00.207Z,5.00
2019-01-02T06:45:00.384Z,5.30
2019-01-02T06:46:00.567Z,4.60
2019-01-02T06:47:00.752Z,5.50
2019-01-02T06:48:00.918Z,4.90
2019-01-02T06:49:01.106Z,5.40
2019-01-02T06:50:01.288Z,5.50
2019-01-02T06:51:01.463Z,6.00
2019-01-02T06:52:01.645Z,5.60
2019-01-02T06:53:01.841Z,5.00
2019-01-02T06:54:02.022Z,4.70
2019-01-02T06:55:02.204Z,5.50
2019-01-02T06:56:02.380Z,5.60
2019-01-02T06:57:02.561Z,5.40
2019-01-02T06:58:02.743Z,5.40
2019-01-02T06:59:02.922Z,5.60
2019-01-02T07:00:03.092Z,5.50
2019-01-02T07:01:03.284Z,4.70
2019-01-02T07:02:03.445Z,5.50
2019-01-02T07:03:03.619Z,5.20
2019-01-02T07:04:03.801Z,5.80
2019-01-02T07:05:03.973Z,6.10
2019-01-02T07:06:04.153Z,6.00
2019-01-02T07:07:04.342Z,6.30
2019-01-02T07:08:04.526Z,6.10
2019-01-02T07:09:04.707Z,5.20
2019-01-02T07:10:04.889Z,5.60
2019-01-02T07:11:05.070Z,5.70
2019-01-02T07:12:05.261Z,5.60
2019-01-02T07:13:05.448Z,5.20
2019-01-02T07:14:05.626Z,6.30
2019-01-02T07:15:05.804Z,6.40
2019-01-02T07:16:05.985Z,5.50
2019-01-02T07:17:06.184Z,5.50
2019-01-02T07:18:06.349Z,5.10
2019-01-02T07:19:06.526Z,5.70
2019-01-02T07:20:06.715Z,5.60
2019-01-02T07:21:06.897Z,5.50
2019-01-02T07:22:07.077Z,5.30
2019-01-02T07:23:07.262Z,6.00
2019-01-02T07:24:07.447Z,6.00
2019-01-02T07:25:07.614Z,5.30
2019-01-02T07:26:07.807Z,5.20
2019-01-02T07:27:07.987Z,5.80
2019-01-02T07:28:08.168Z,5.60
2019-01-02T07:29:08.349Z,5.80
2019-01-02T07:30:08.529Z,6.00
2019-01-02T07:31:08.700Z,5.80
2019-01-02T07:32:08.882Z,6.00
2019-01-02T07:33:09.063Z,5.60
2019-01-02T07:34:09.271Z,5.10
2019-01-02T07:35:09.454Z,6.10
2019-01-02T07:36:09.628Z,5.80
2019-01-02T07:37:09.821Z,5.50
2019-01-02T07:38:09.986Z,5.70
2019-01-02T07:39:10.166Z,5.70
2019-01-02T07:40:10.352Z,5.60
2019-01-02T07:41:10.527Z,6.40
2019-01-02T07:42:10.712Z,5.70
2019-01-02T07:43:10.903Z,5.90
2019-01-02T07:44:11.075Z,6.10
2019-01-02T07:45:11.267Z,5.90
2019-01-02T07:46:11.442Z,5.90
2019-01-02T07:47:11.625Z,5.80
2019-01-02T07:48:11.814Z,5.20
2019-01-02T07:49:11.995Z,6.00
2019-01-02T07:50:12.169Z,5.30
2019-01-02T07:51:12.351Z,5.80
2019-01-02T07:52:12.537Z,5.80
2019-01-02T07:53:12.719Z,5.90
2019-01-02T07:54:12.921Z,5.90
2019-01-02T07:55:13.098Z,5.70
2019-01-02T07:56:13.294Z,5.70
2019-01-02T07:57:13.454Z,5.40
2019-01-02T07:58:13.644Z,5.90
2019-01-02T07:59:13.825Z,6.00
2019-01-02T08:00:14.014Z,5.30
2019-01-02T08:01:14.197Z,6.10
2019-01-02T08:02:14.379Z,6.80
2019-01-02T08:03:14.560Z,5.70
2019-01-02T08:04:14.737Z,6.20
2019-01-02T08:05:14.923Z,5.60
2019-01-02T08:06:15.107Z,5.80
2019-01-02T08:07:15.285Z,5.60
2019-01-02T08:08:15.470Z,5.90
2019-01-02T08:09:15.645Z,5.30
2019-01-02T08:10:15.822Z,6.00
2019-01-02T08:11:16.008Z,5.20
2019-01-02T08:12:16.188Z,5.60
2019-01-02T08:13:16.372Z,5.90
2019-01-02T08:14:16.561Z,6.10
2019-01-02T08:15:16.753Z,5.20
2019-01-02T08:16:16.955Z,5.70
2019-01-02T08:17:17.162Z,5.50
2019-01-02T08:18:17.321Z,5.40
2019-01-02T08:19:17.498Z,5.20
2019-01-02T08:20:17.684Z,5.40
2019-01-02T08:21:17.867Z,5.30
2019-01-02T08:22:18.046Z,5.20
2019-01-02T08:23:18.228Z,6.20
2019-01-02T08:24:18.414Z,5.20
2019-01-02T08:25:18.599Z,5.30
2019-01-02T08:26:18.772Z,5.30
2019-01-02T08:27:18.947Z,5.80
2019-01-02T08:28:19.147Z,5.30
2019-01-02T08:29:19.309Z,5.50
2019-01-02T08:30:19.516Z,5.10
2019-01-02T08:31:19.697Z,5.90
2019-01-02T08:32:19.872Z,5.00
2019-01-02T08:33:20.056Z,5.70
2019-01-02T08:34:20.232Z,5.20
2019-01-02T08:35:20.425Z,5.40
2019-01-02T08:36:20.602Z,5.10
2019-01-02T08:37:20.782Z,5.30
2019-01-02T08:38:20.968Z,6.00
2019-01-02T08:39:22.370Z,5.40
2019-01-02T08:40:21.326Z,8.70
2019-01-02T08:41:21.512Z,5.30
2019-01-02T08:42:21.692Z,4.80
2019-01-02T08:43:21.875Z,5.20
2019-01-02T08:44:22.057Z,4.30
2019-01-02T08:45:22.235Z,3.40
2019-01-02T08:46:22.420Z,3.30
2019-01-02T08:47:22.605Z,3.40
2019-01-02T08:48:22.789Z,3.20
2019-01-02T08:49:22.968Z,2.80
2019-01-02T08:50:23.154Z,2.70
2019-01-02T08:51:23.329Z,3.20
2019-01-02T08:52:23.508Z,2.40
2019-01-02T08:53:23.692Z,2.30
2019-01-02T08:54:23.873Z,2.90
2019-01-02T08:55:24.421Z,3.00
2019-01-02T08:56:24.231Z,3.30
2019-01-02T08:57:24.414Z,3.00
2019-01-02T08:58:24.604Z,3.70
2019-01-02T08:59:24.793Z,3.50
2019-01-02T09:00:24.949Z,3.40
2019-01-02T09:01:25.127Z,3.90
2019-01-02T09:02:25.312Z,2.70
2019-01-02T09:03:25.491Z,3.40
2019-01-02T09:04:25.679Z,3.40
2019-01-02T09:05:25.867Z,3.40
2019-01-02T09:06:26.052Z,3.80
2019-01-02T09:07:26.233Z,3.20
2019-01-02T09:08:26.419Z,3.80
2019-01-02T09:09:26.599Z,4.50
2019-01-02T09:10:26.788Z,4.20
2019-01-02T09:11:26.979Z,3.70
2019-01-02T09:12:27.165Z,3.70
2019-01-02T09:13:27.362Z,4.30
2019-01-02T09:14:27.541Z,3.80
2019-01-02T09:15:27.728Z,4.00
2019-01-02T09:16:27.918Z,4.60
2019-01-02T09:17:28.104Z,4.10
2019-01-02T09:18:28.300Z,4.00
2019-01-02T09:19:28.488Z,4.80
2019-01-02T09:20:28.681Z,4.00
2019-01-02T09:21:28.873Z,3.90
2019-01-02T09:22:29.073Z,4.60
2019-01-02T09:23:29.252Z,3.70
2019-01-02T09:24:29.437Z,4.70
2019-01-02T09:25:29.628Z,4.10
2019-01-02T09:26:29.819Z,3.80
2019-01-02T09:27:30.045Z,4.10
2019-01-02T09:28:30.208Z,5.00
2019-01-02T09:29:30.403Z,4.40
2019-01-02T09:30:30.591Z,5.00
2019-01-02T09:31:30.789Z,4.70
2019-01-02T09:32:30.989Z,4.60
2019-01-02T09:33:31.197Z,4.40
2019-01-02T09:34:31.373Z,4.60
2019-01-02T09:35:31.571Z,4.40
2019-01-02T09:36:31.774Z,4.40
2019-01-02T09:37:31.954Z,4.80
2019-01-02T09:38:32.155Z,4.30
2019-01-02T09:39:32.343Z,4.90
2019-01-02T09:40:32.567Z,4.60
2019-01-02T09:41:32.737Z,4.20
2019-01-02T09:42:32.927Z,5.10
2019-01-02T09:43:33.113Z,4.50
2019-01-02T09:44:33.307Z,4.70
2019-01-02T09:45:33.506Z,4.40
2019-01-02T09:46:33.715Z,4.40
2019-01-02T09:47:33.900Z,5.10
2019-01-02T09:48:34.082Z,4.60
2019-01-02T09:49:34.278Z,4.80
2019-01-02T09:50:34.476Z,4.80
2019-01-02T09:51:34.674Z,4.80
2019-01-02T09:52:34.864Z,4.70
2019-01-02T09:53:35.043Z,4.40
2019-01-02T09:54:35.232Z,4.50
2019-01-02T09:55:35.429Z,5.20
2019-01-02T09:56:35.633Z,4.70
2019-01-02T09:57:35.826Z,4.20
2019-01-02T09:58:36.031Z,4.00
2019-01-02T09:59:36.219Z,4.30
2019-01-02T10:02:19.130Z,4.40
2019-01-02T10:03:19.332Z,4.60
2019-01-02T10:04:19.524Z,3.80
2019-01-02T10:05:19.719Z,4.20
2019-01-02T10:06:19.914Z,4.10
2019-01-02T10:07:20.106Z,4.30
2019-01-02T10:08:20.296Z,4.00
2019-01-02T10:09:20.489Z,4.80
2019-01-02T10:10:20.694Z,3.80
2019-01-02T10:11:20.868Z,4.40
2019-01-02T10:12:21.060Z,3.70
2019-01-02T10:13:21.250Z,4.30
2019-01-02T10:14:21.437Z,3.70
2019-01-02T10:15:21.628Z,4.20
2019-01-02T10:16:21.822Z,4.00
2019-01-02T10:17:22.019Z,4.30
2019-01-02T10:18:22.205Z,3.90
2019-01-02T10:19:22.409Z,3.90
2019-01-02T10:20:24.066Z,4.10
2019-01-02T10:21:22.789Z,4.00
2019-01-02T10:22:22.990Z,4.20
2019-01-02T10:23:23.182Z,4.20
2019-01-02T10:24:23.375Z,4.10
2019-01-02T10:25:23.565Z,4.00
2019-01-02T10:26:23.753Z,3.60
2019-01-02T10:27:23.948Z,3.80
2019-01-02T10:28:24.145Z,3.50
2019-01-02T10:29:24.345Z,4.10
2019-01-02T10:30:24.528Z,3.60
2019-01-02T10:31:24.730Z,3.70
2019-01-02T10:32:24.917Z,3.40
2019-01-02T10:33:25.116Z,3.50
2019-01-02T10:34:25.317Z,3.50
2019-01-02T10:35:25.500Z,3.50
2019-01-02T10:36:25.703Z,3.10
2019-01-02T10:37:25.891Z,3.60
2019-01-02T10:38:26.083Z,2.70
2019-01-02T10:39:26.276Z,3.70
2019-01-02T10:40:26.458Z,3.40
2019-01-02T10:41:26.657Z,3.40
2019-01-02T10:42:26.847Z,3.10
2019-01-02T10:43:27.037Z,2.80
2019-01-02T10:44:27.235Z,2.60
2019-01-02T10:45:27.413Z,3.30
2019-01-02T10:46:27.612Z,3.20
2019-01-02T10:47:27.791Z,3.30
2019-01-02T10:48:27.979Z,2.90
2019-01-02T10:49:28.166Z,3.50
2019-01-02T10:50:28.351Z,3.10
2019-01-02T10:51:28.546Z,3.00
2019-01-02T10:52:28.742Z,3.50
2019-01-02T10:53:28.924Z,3.60
2019-01-02T10:54:29.113Z,3.40
2019-01-02T10:55:29.297Z,2.90
2019-01-02T10:56:29.489Z,3.00
2019-01-02T10:57:29.671Z,3.40
2019-01-02T10:58:36.427Z,2.90
2019-01-02T10:59:30.056Z,2.90
2019-01-02T11:00:30.249Z,3.00
2019-01-02T11:01:30.459Z,2.90
2019-01-02T11:02:30.645Z,2.60
2019-01-02T11:03:30.831Z,2.50
2019-01-02T11:04:31.024Z,2.70
2019-01-02T11:05:31.209Z,3.10
2019-01-02T11:06:31.403Z,3.50
2019-01-02T11:07:31.832Z,3.30
2019-01-02T11:08:31.789Z,2.90
2019-01-02T11:09:31.977Z,2.60
2019-01-02T11:10:32.165Z,3.00
2019-01-02T11:11:32.356Z,2.80
2019-01-02T11:12:32.550Z,2.80
2019-01-02T11:13:32.734Z,2.80
2019-01-02T11:14:32.922Z,2.40
2019-01-02T11:15:33.114Z,2.90
2019-01-02T11:16:33.301Z,2.80
2019-01-02T11:17:33.489Z,2.90
2019-01-02T11:18:33.684Z,3.00
2019-01-02T11:19:33.871Z,2.60
2019-01-02T11:20:34.058Z,2.70
2019-01-02T11:21:34.262Z,2.70
2019-01-02T11:22:34.454Z,2.90
2019-01-02T11:23:34.645Z,2.70
2019-01-02T11:24:34.837Z,2.60
2019-01-02T11:25:35.029Z,2.40
2019-01-02T11:26:35.224Z,3.20
2019-01-02T11:27:35.433Z,3.00
2019-01-02T11:28:35.629Z,2.60
2019-01-02T11:29:35.793Z,2.40
2019-01-02T11:30:35.983Z,2.40
2019-01-02T11:31:36.185Z,2.50
2019-01-02T11:32:36.374Z,2.50
2019-01-02T11:33:36.567Z,2.70
2019-01-02T11:34:36.767Z,2.60
2019-01-02T11:35:36.969Z,2.30
2019-01-02T11:36:37.167Z,2.50
2019-01-02T11:37:37.355Z,2.70
2019-01-02T11:38:37.550Z,2.50
2019-01-02T11:39:37.744Z,3.00
2019-01-02T11:40:37.927Z,2.60
2019-01-02T11:41:38.129Z,2.70
2019-01-02T11:42:38.315Z,2.80
2019-01-02T11:43:38.503Z,2.60
2019-01-02T11:44:38.695Z,2.90
2019-01-02T11:45:38.890Z,2.80
2019-01-02T11:46:39.087Z,2.70
2019-01-02T11:47:39.280Z,2.70
2019-01-02T11:48:39.461Z,2.70
2019-01-02T11:49:39.653Z,2.90
2019-01-02T11:50:39.846Z,2.60
2019-01-02T11:51:40.035Z,2.80
2019-01-02T11:52:40.224Z,2.50
2019-01-02T11:53:40.410Z,2.70
2019-01-02T11:54:40.602Z,2.90
2019-01-02T11:55:40.794Z,2.40
2019-01-02T11:56:40.986Z,2.60
2019-01-02T11:57:41.174Z,2.70
2019-01-02T11:58:41.370Z,2.80
2019-01-02T11:59:41.566Z,2.80
2019-01-02T12:00:41.750Z,2.90
2019-01-02T12:01:41.947Z,2.50
2019-01-02T12:02:42.127Z,2.50
2019-01-02T12:03:42.313Z,2.30
2019-01-02T12:04:42.500Z,2.70
2019-01-02T12:05:42.691Z,2.80
2019-01-02T12:06:42.881Z,2.60
2019-01-02T12:07:43.075Z,2.80
2019-01-02T12:08:43.262Z,2.40
2019-01-02T12:09:43.451Z,2.70
2019-01-02T12:10:43.650Z,2.10
2019-01-02T12:11:43.880Z,2.40
2019-01-02T12:12:44.032Z,2.40
2019-01-02T12:13:44.227Z,2.30
2019-01-02T12:14:44.421Z,2.30
2019-01-02T12:15:44.612Z,2.10
2019-01-02T12:16:44.813Z,2.40
2019-01-02T12:17:45.003Z,2.30
2019-01-02T12:18:45.204Z,2.30
2019-01-02T12:19:45.392Z,2.50
2019-01-02T12:20:45.581Z,2.60
2019-01-02T12:21:45.775Z,2.20
2019-01-02T12:22:45.967Z,2.20
2019-01-02T12:23:46.169Z,2.10
2019-01-02T12:24:46.358Z,2.20
2019-01-02T12:25:46.562Z,2.10
2019-01-02T12:26:46.757Z,2.10
2019-01-02T12:27:46.950Z,2.40
2019-01-02T12:28:47.138Z,2.20
2019-01-02T12:29:47.326Z,2.50
2019-01-02T12:30:47.524Z,2.20
2019-01-02T12:31:47.714Z,2.30
2019-01-02T12:32:47.912Z,2.20
2019-01-02T12:33:48.101Z,2.10
2019-01-02T12:34:48.309Z,2.30
2019-01-02T12:35:48.507Z,1.90
2019-01-02T12:36:48.698Z,2.40
2019-01-02T12:37:48.894Z,2.20
2019-01-02T12:38:49.081Z,2.10
2019-01-02T12:39:49.270Z,1.80
2019-01-02T12:40:49.465Z,2.30
2019-01-02T12:41:49.657Z,1.70
2019-01-02T12:42:49.847Z,1.90
2019-01-02T12:43:50.038Z,1.80
2019-01-02T12:44:50.227Z,2.00
2019-01-02T12:45:50.424Z,2.10
2019-01-02T12:46:50.622Z,2.00
2019-01-02T12:47:50.817Z,1.90
2019-01-02T12:48:51.035Z,2.20
2019-01-02T12:49:51.222Z,2.30
2019-01-02T12:50:51.417Z,2.20
2019-01-02T12:51:51.612Z,2.00
2019-01-02T12:52:51.801Z,2.10
2019-01-02T12:53:52.005Z,2.00
2019-01-02T12:54:52.196Z,1.90
2019-01-02T12:55:52.384Z,1.80
2019-01-02T12:56:52.564Z,2.10
2019-01-02T12:57:52.768Z,1.70
2019-01-02T12:58:52.955Z,2.10
2019-01-02T12:59:53.144Z,2.10
2019-01-02T13:00:53.334Z,1.60
2019-01-02T13:01:53.530Z,1.80
2019-01-02T13:02:53.719Z,2.10
2019-01-02T13:03:53.911Z,2.20
2019-01-02T13:04:54.108Z,1.80
2019-01-02T13:05:54.302Z,1.70
2019-01-02T13:06:54.482Z,1.90
2019-01-02T13:07:54.677Z,2.10
2019-01-02T13:08:54.869Z,2.10
2019-01-02T13:09:55.080Z,1.90
2019-01-02T13:10:55.252Z,1.70
2019-01-02T13:11:55.441Z,2.00
2019-01-02T13:12:55.635Z,1.90
2019-01-02T13:13:55.828Z,2.00
2019-01-02T13:14:56.024Z,2.30
2019-01-02T13:15:56.210Z,2.20
2019-01-02T13:16:56.399Z,1.60
2019-01-02T13:17:56.590Z,1.80
2019-01-02T13:18:56.788Z,2.10
2019-01-02T13:19:56.977Z,1.90
2019-01-02T13:20:57.167Z,1.70
2019-01-02T13:21:57.359Z,1.70
2019-01-02T13:22:57.544Z,1.80